sensor_id;sensor_type;location;lat;lon;timestamp;P1;durP1;ratioP1;P2;durP2;ratioP2
928;SDS011;451;47.988;7.842;2023-04-19T00:04:06;6.50;;;5.90;;
928;SDS011;451;47.988;7.842;2023-04-19T00:13:11;5.63;;;5.13;;
928;SDS011;451;47.988;7.842;2023-04-19T00:22:14;7.77;;;5.90;;
928;SDS011;451;47.988;7.842;2023-04-19T00:31:19;5.90;;;5.27;;
928;SDS011;451;47.988;7.842;2023-04-19T00:40:22;6.33;;;5.83;;
928;SDS011;451;47.988;7.842;2023-04-19T00:49:27;5.93;;;5.40;;
928;SDS011;451;47.988;7.842;2023-04-19T00:58:30;9.13;;;6.70;;
928;SDS011;451;47.988;7.842;2023-04-19T01:07:35;6.93;;;6.23;;
928;SDS011;451;47.988;7.842;2023-04-19T01:16:38;9.30;;;6.60;;
928;SDS011;451;47.988;7.842;2023-04-19T01:25:43;6.60;;;5.93;;
928;SDS011;451;47.988;7.842;2023-04-19T01:34:46;7.77;;;6.10;;
928;SDS011;451;47.988;7.842;2023-04-19T01:43:52;9.27;;;7.20;;
928;SDS011;451;47.988;7.842;2023-04-19T01:52:55;11.93;;;7.77;;
928;SDS011;451;47.988;7.842;2023-04-19T02:01:59;9.33;;;6.97;;
928;SDS011;451;47.988;7.842;2023-04-19T02:11:05;9.87;;;7.27;;
928;SDS011;451;47.988;7.842;2023-04-19T02:20:10;7.73;;;7.03;;
928;SDS011;451;47.988;7.842;2023-04-19T02:29:13;9.90;;;7.50;;
928;SDS011;451;47.988;7.842;2023-04-19T02:38:18;9.07;;;7.60;;
928;SDS011;451;47.988;7.842;2023-04-19T02:47:21;10.10;;;7.07;;
928;SDS011;451;47.988;7.842;2023-04-19T02:56:26;8.50;;;6.60;;
928;SDS011;451;47.988;7.842;2023-04-19T03:05:29;7.07;;;6.37;;
928;SDS011;451;47.988;7.842;2023-04-19T03:14:34;10.00;;;7.10;;
928;SDS011;451;47.988;7.842;2023-04-19T03:23:37;9.27;;;7.00;;
928;SDS011;451;47.988;7.842;2023-04-19T03:32:43;9.37;;;7.30;;
928;SDS011;451;47.988;7.842;2023-04-19T03:41:48;7.87;;;7.07;;
928;SDS011;451;47.988;7.842;2023-04-19T03:51:25;9.37;;;7.80;;
928;SDS011;451;47.988;7.842;2023-04-19T04:00:28;10.47;;;8.13;;
928;SDS011;451;47.988;7.842;2023-04-19T04:09:36;9.37;;;8.40;;
928;SDS011;451;47.988;7.842;2023-04-19T04:18:39;13.60;;;8.70;;
928;SDS011;451;47.988;7.842;2023-04-19T04:27:49;9.33;;;6.93;;
928;SDS011;451;47.988;7.842;2023-04-19T04:36:54;7.20;;;6.30;;
928;SDS011;451;47.988;7.842;2023-04-19T04:46:04;7.13;;;6.30;;
928;SDS011;451;47.988;7.842;2023-04-19T04:55:12;6.50;;;5.83;;
928;SDS011;451;47.988;7.842;2023-04-19T05:04:20;8.07;;;7.20;;
928;SDS011;451;47.988;7.842;2023-04-19T05:13:23;8.80;;;6.77;;
928;SDS011;451;47.988;7.842;2023-04-19T05:22:28;8.23;;;7.43;;
928;SDS011;451;47.988;7.842;2023-04-19T05:31:32;8.97;;;6.43;;
928;SDS011;451;47.988;7.842;2023-04-19T05:41:06;8.93;;;7.30;;
928;SDS011;451;47.988;7.842;2023-04-19T05:50:09;10.13;;;8.97;;
928;SDS011;451;47.988;7.842;2023-04-19T05:59:22;9.93;;;8.83;;
928;SDS011;451;47.988;7.842;2023-04-19T06:08:26;10.57;;;7.97;;
928;SDS011;451;47.988;7.842;2023-04-19T06:17:31;12.73;;;9.23;;
928;SDS011;451;47.988;7.842;2023-04-19T06:26:35;8.33;;;7.53;;
928;SDS011;451;47.988;7.842;2023-04-19T06:35:41;11.60;;;9.37;;
928;SDS011;451;47.988;7.842;2023-04-19T06:44:44;11.20;;;9.07;;
928;SDS011;451;47.988;7.842;2023-04-19T06:53:49;13.37;;;10.10;;
928;SDS011;451;47.988;7.842;2023-04-19T07:02:52;13.00;;;11.07;;
928;SDS011;451;47.988;7.842;2023-04-19T07:11:58;12.90;;;11.60;;
928;SDS011;451;47.988;7.842;2023-04-19T07:21:02;15.43;;;12.37;;
928;SDS011;451;47.988;7.842;2023-04-19T07:30:07;15.82;;;13.13;;
928;SDS011;451;47.988;7.842;2023-04-19T07:39:11;14.50;;;12.00;;
928;SDS011;451;47.988;7.842;2023-04-19T07:48:16;13.13;;;11.73;;
928;SDS011;451;47.988;7.842;2023-04-19T07:57:19;14.60;;;12.10;;
928;SDS011;451;47.988;7.842;2023-04-19T08:06:23;13.17;;;11.73;;
928;SDS011;451;47.988;7.842;2023-04-19T08:15:27;14.30;;;12.10;;
928;SDS011;451;47.988;7.842;2023-04-19T08:24:32;14.20;;;12.33;;
928;SDS011;451;47.988;7.842;2023-04-19T08:33:35;17.43;;;13.17;;
928;SDS011;451;47.988;7.842;2023-04-19T08:42:42;14.23;;;12.70;;
928;SDS011;451;47.988;7.842;2023-04-19T08:51:45;18.03;;;13.63;;
928;SDS011;451;47.988;7.842;2023-04-19T09:00:51;13.67;;;11.97;;
928;SDS011;451;47.988;7.842;2023-04-19T09:10:04;14.93;;;12.70;;
928;SDS011;451;47.988;7.842;2023-04-19T09:19:09;14.20;;;10.63;;
928;SDS011;451;47.988;7.842;2023-04-19T09:28:13;14.60;;;12.00;;
928;SDS011;451;47.988;7.842;2023-04-19T09:37:18;14.27;;;12.77;;
928;SDS011;451;47.988;7.842;2023-04-19T09:46:31;13.57;;;10.20;;
928;SDS011;451;47.988;7.842;2023-04-19T09:55:37;12.43;;;11.00;;
928;SDS011;451;47.988;7.842;2023-04-19T10:04:41;13.13;;;11.67;;
928;SDS011;451;47.988;7.842;2023-04-19T10:13:47;14.63;;;12.30;;
928;SDS011;451;47.988;7.842;2023-04-19T10:22:52;14.90;;;11.40;;
928;SDS011;451;47.988;7.842;2023-04-19T10:31:57;12.73;;;11.43;;
928;SDS011;451;47.988;7.842;2023-04-19T10:41:00;13.30;;;11.13;;
928;SDS011;451;47.988;7.842;2023-04-19T10:50:07;15.70;;;11.80;;
928;SDS011;451;47.988;7.842;2023-04-19T10:59:12;12.57;;;11.27;;
928;SDS011;451;47.988;7.842;2023-04-19T11:08:25;15.97;;;11.63;;
928;SDS011;451;47.988;7.842;2023-04-19T11:17:28;12.43;;;11.13;;
928;SDS011;451;47.988;7.842;2023-04-19T11:26:34;13.67;;;10.73;;
928;SDS011;451;47.988;7.842;2023-04-19T11:35:37;12.87;;;11.10;;
928;SDS011;451;47.988;7.842;2023-04-19T11:44:46;10.80;;;9.70;;
928;SDS011;451;47.988;7.842;2023-04-19T11:53:50;12.20;;;10.97;;
928;SDS011;451;47.988;7.842;2023-04-19T12:02:55;12.40;;;9.97;;
928;SDS011;451;47.988;7.842;2023-04-19T12:11:58;12.10;;;10.80;;
928;SDS011;451;47.988;7.842;2023-04-19T12:21:04;12.00;;;10.80;;
928;SDS011;451;47.988;7.842;2023-04-19T12:30:09;13.00;;;11.00;;
928;SDS011;451;47.988;7.842;2023-04-19T12:39:13;11.60;;;10.40;;
928;SDS011;451;47.988;7.842;2023-04-19T12:48:16;11.80;;;10.13;;
928;SDS011;451;47.988;7.842;2023-04-19T12:57:21;13.40;;;9.97;;
928;SDS011;451;47.988;7.842;2023-04-19T13:06:24;12.57;;;10.10;;
928;SDS011;451;47.988;7.842;2023-04-19T13:15:29;9.30;;;8.30;;
928;SDS011;451;47.988;7.842;2023-04-19T13:24:32;10.20;;;9.20;;
928;SDS011;451;47.988;7.842;2023-04-19T13:33:37;9.83;;;8.57;;
928;SDS011;451;47.988;7.842;2023-04-19T13:42:40;8.70;;;7.80;;
928;SDS011;451;47.988;7.842;2023-04-19T13:51:44;8.80;;;8.00;;
928;SDS011;451;47.988;7.842;2023-04-19T14:00:47;11.03;;;8.80;;
928;SDS011;451;47.988;7.842;2023-04-19T14:09:51;9.40;;;8.47;;
928;SDS011;451;47.988;7.842;2023-04-19T14:18:55;9.57;;;8.67;;
928;SDS011;451;47.988;7.842;2023-04-19T14:27:59;9.20;;;8.23;;
928;SDS011;451;47.988;7.842;2023-04-19T14:37:02;9.03;;;8.13;;
928;SDS011;451;47.988;7.842;2023-04-19T14:46:06;10.17;;;8.30;;
928;SDS011;451;47.988;7.842;2023-04-19T14:55:09;9.60;;;8.23;;
928;SDS011;451;47.988;7.842;2023-04-19T15:04:14;10.03;;;8.20;;
928;SDS011;451;47.988;7.842;2023-04-19T15:13:17;10.87;;;8.70;;
928;SDS011;451;47.988;7.842;2023-04-19T15:22:22;8.60;;;7.70;;
928;SDS011;451;47.988;7.842;2023-04-19T15:31:25;10.57;;;9.47;;
928;SDS011;451;47.988;7.842;2023-04-19T15:40:29;10.50;;;9.40;;
928;SDS011;451;47.988;7.842;2023-04-19T15:49:32;12.40;;;10.40;;
928;SDS011;451;47.988;7.842;2023-04-19T15:58:37;12.80;;;11.13;;
928;SDS011;451;47.988;7.842;2023-04-19T16:07:40;11.57;;;8.93;;
928;SDS011;451;47.988;7.842;2023-04-19T16:16:45;12.90;;;10.03;;
928;SDS011;451;47.988;7.842;2023-04-19T16:25:49;10.60;;;9.47;;
928;SDS011;451;47.988;7.842;2023-04-19T16:34:53;12.70;;;11.30;;
928;SDS011;451;47.988;7.842;2023-04-19T16:43:56;17.20;;;11.13;;
928;SDS011;451;47.988;7.842;2023-04-19T16:53:01;14.47;;;10.97;;
928;SDS011;451;47.988;7.842;2023-04-19T17:02:04;9.30;;;8.30;;
928;SDS011;451;47.988;7.842;2023-04-19T17:11:09;10.67;;;9.00;;
928;SDS011;451;47.988;7.842;2023-04-19T17:20:12;12.93;;;8.93;;
928;SDS011;451;47.988;7.842;2023-04-19T17:29:17;12.60;;;10.30;;
928;SDS011;451;47.988;7.842;2023-04-19T17:38:20;12.50;;;9.20;;
928;SDS011;451;47.988;7.842;2023-04-19T17:47:24;11.23;;;9.13;;
928;SDS011;451;47.988;7.842;2023-04-19T17:56:27;10.07;;;7.37;;
928;SDS011;451;47.988;7.842;2023-04-19T18:05:31;7.50;;;6.67;;
928;SDS011;451;47.988;7.842;2023-04-19T18:14:34;9.60;;;8.17;;
928;SDS011;451;47.988;7.842;2023-04-19T18:23:39;10.73;;;9.60;;
928;SDS011;451;47.988;7.842;2023-04-19T18:32:42;14.17;;;10.60;;
928;SDS011;451;47.988;7.842;2023-04-19T18:41:46;8.70;;;7.90;;
928;SDS011;451;47.988;7.842;2023-04-19T18:50:49;8.33;;;7.53;;
928;SDS011;451;47.988;7.842;2023-04-19T18:59:54;9.37;;;8.20;;
928;SDS011;451;47.988;7.842;2023-04-19T19:08:57;9.27;;;7.70;;
928;SDS011;451;47.988;7.842;2023-04-19T19:18:02;9.80;;;8.80;;
928;SDS011;451;47.988;7.842;2023-04-19T19:27:05;9.30;;;8.13;;
928;SDS011;451;47.988;7.842;2023-04-19T19:36:10;8.93;;;7.90;;
928;SDS011;451;47.988;7.842;2023-04-19T19:45:13;9.40;;;6.83;;
928;SDS011;451;47.988;7.842;2023-04-19T19:54:17;7.50;;;6.10;;
928;SDS011;451;47.988;7.842;2023-04-19T20:03:20;8.03;;;6.60;;
928;SDS011;451;47.988;7.842;2023-04-19T20:12:25;6.53;;;5.90;;
928;SDS011;451;47.988;7.842;2023-04-19T20:21:28;8.13;;;6.07;;
928;SDS011;451;47.988;7.842;2023-04-19T20:30:33;7.77;;;7.00;;
928;SDS011;451;47.988;7.842;2023-04-19T20:39:36;8.00;;;6.67;;
928;SDS011;451;47.988;7.842;2023-04-19T20:48:40;7.57;;;6.30;;
928;SDS011;451;47.988;7.842;2023-04-19T20:57:43;7.20;;;6.03;;
928;SDS011;451;47.988;7.842;2023-04-19T21:06:48;6.70;;;5.80;;
928;SDS011;451;47.988;7.842;2023-04-19T21:15:51;7.43;;;6.57;;
928;SDS011;451;47.988;7.842;2023-04-19T21:24:56;6.87;;;6.17;;
928;SDS011;451;47.988;7.842;2023-04-19T21:33:59;6.63;;;6.03;;
928;SDS011;451;47.988;7.842;2023-04-19T21:43:04;8.07;;;7.27;;
928;SDS011;451;47.988;7.842;2023-04-19T21:52:07;7.27;;;6.60;;
928;SDS011;451;47.988;7.842;2023-04-19T22:01:11;9.77;;;7.20;;
928;SDS011;451;47.988;7.842;2023-04-19T22:10:14;8.20;;;7.40;;
928;SDS011;451;47.988;7.842;2023-04-19T22:19:19;12.33;;;9.10;;
928;SDS011;451;47.988;7.842;2023-04-19T22:28:23;8.40;;;7.10;;
928;SDS011;451;47.988;7.842;2023-04-19T22:37:28;9.67;;;8.33;;
928;SDS011;451;47.988;7.842;2023-04-19T22:46:31;9.20;;;7.70;;
928;SDS011;451;47.988;7.842;2023-04-19T22:55:36;8.40;;;7.60;;
928;SDS011;451;47.988;7.842;2023-04-19T23:04:39;8.07;;;7.30;;
928;SDS011;451;47.988;7.842;2023-04-19T23:13:44;8.90;;;7.70;;
928;SDS011;451;47.988;7.842;2023-04-19T23:22:47;10.40;;;8.33;;
928;SDS011;451;47.988;7.842;2023-04-19T23:31:52;11.80;;;9.20;;
928;SDS011;451;47.988;7.842;2023-04-19T23:40:55;11.50;;;8.40;;
928;SDS011;451;47.988;7.842;2023-04-19T23:49:59;12.63;;;9.50;;
928;SDS011;451;47.988;7.842;2023-04-19T23:59:02;8.90;;;8.00;;
